Time;durP1;ratioP1;P1;durP2;ratioP2;P2;SDS_P1;SDS_P2;PMS_P1;PMS_P2;Temp;Humidity;BMP_temperature;BMP_pressure;BME280_temperature;BME280_humidity;BME280_pressure;Samples;Min_cycle;Max_cycle;Signal;HPM_P1;HPM_P2
2023/05/27 00:02:11;;;;;;;;;;;;;;;21.16;49.09;98640.97;5067990;28;19928;-75
2023/05/27 00:04:37;;;;;;;;;;;;;;;20.87;48.74;98641.44;5069059;28;19929;-75
2023/05/27 00:07:04;;;;;;;;;;;;;;;21.00;49.25;98640.56;5070068;28;19925;-75
2023/05/27 00:09:31;;;;;;;;;;;;;;;21.01;49.09;98645.66;5073835;28;19925;-75
2023/05/27 00:11:58;;;;;;;;;;;;;;;21.17;49.05;98639.88;5069435;28;19955;-75
2023/05/27 00:14:24;;;;;;;;;;;;;;;21.26;48.70;98633.31;5068926;28;19936;-75
2023/05/27 00:16:51;;;;;;;;;;;;;;;21.28;49.08;98633.03;5069679;28;19921;-75
2023/05/27 00:19:17;;;;;;;;;;;;;;;21.49;48.46;98634.03;5068827;28;19925;-75
2023/05/27 00:21:44;;;;;;;;;;;;;;;21.44;48.61;98629.56;5073388;28;19936;-75
2023/05/27 00:24:11;;;;;;;;;;;;;;;21.01;49.03;98634.78;5072088;28;19925;-75
2023/05/27 00:26:39;;;;;;;;;;;;;;;20.67;49.59;98631.13;5069055;28;19940;-75
2023/05/27 00:29:05;;;;;;;;;;;;;;;20.93;49.59;98632.03;5076305;28;19924;-75
2023/05/27 00:31:32;;;;;;;;;;;;;;;20.68;49.60;98635.44;5074856;28;19939;-75
2023/05/27 00:33:58;;;;;;;;;;;;;;;20.54;49.91;98638.25;5070419;28;20621;-75
2023/05/27 00:36:24;;;;;;;;;;;;;;;20.33;50.02;98639.88;5068466;28;19932;-75
2023/05/27 00:38:51;;;;;;;;;;;;;;;20.14;50.83;98637.28;5067313;28;19933;-75
2023/05/27 00:41:17;;;;;;;;;;;;;;;20.56;50.28;98635.19;5068473;28;19925;-75
2023/05/27 00:43:45;;;;;;;;;;;;;;;20.14;49.67;98633.78;5072961;28;19925;-75
2023/05/27 00:46:11;;;;;;;;;;;;;;;19.73;50.10;98639.31;5071874;28;19925;-75
2023/05/27 00:48:37;;;;;;;;;;;;;;;19.50;50.79;98629.50;5066736;28;19932;-75
2023/05/27 00:51:04;;;;;;;;;;;;;;;19.55;51.09;98626.72;5067216;28;21305;-75
2023/05/27 00:53:34;;;;;;;;;;;;;;;19.59;51.32;98622.28;5069469;28;19929;-75
2023/05/27 00:56:01;;;;;;;;;;;;;;;20.03;51.08;98621.53;5070754;28;19926;-75
2023/05/27 00:58:29;;;;;;;;;;;;;;;20.37;50.65;98617.22;5064456;28;19925;-75
2023/05/27 01:00:56;;;;;;;;;;;;;;;20.34;49.86;98615.13;5074826;28;19927;-75
2023/05/27 01:03:23;;;;;;;;;;;;;;;20.32;50.37;98620.06;5067928;28;19928;-75
2023/05/27 01:05:52;;;;;;;;;;;;;;;20.47;49.74;98610.72;5067160;28;19925;-75
2023/05/27 01:08:25;;;;;;;;;;;;;;;20.71;49.57;98616.63;5068235;28;19925;-75
2023/05/27 01:10:52;;;;;;;;;;;;;;;20.73;49.73;98617.13;5056777;28;19932;-76
2023/05/27 01:13:26;;;;;;;;;;;;;;;21.13;48.90;98617.97;5072685;28;19929;-75
2023/05/27 01:15:54;;;;;;;;;;;;;;;21.33;48.32;98614.66;5061573;28;19921;-75
2023/05/27 01:18:23;;;;;;;;;;;;;;;21.43;47.96;98611.66;5068550;28;19925;-75
2023/05/27 01:20:51;;;;;;;;;;;;;;;21.49;47.93;98615.00;5072438;28;19925;-75
2023/05/27 01:23:19;;;;;;;;;;;;;;;21.49;47.96;98610.38;5071016;28;19924;-75
2023/05/27 01:25:46;;;;;;;;;;;;;;;21.52;47.87;98608.94;5067192;28;19932;-75
2023/05/27 01:28:12;;;;;;;;;;;;;;;21.52;47.69;98619.81;5066287;28;19925;-75
2023/05/27 01:30:38;;;;;;;;;;;;;;;21.50;47.72;98606.56;5072926;28;19924;-75
2023/05/27 01:33:08;;;;;;;;;;;;;;;21.42;48.07;98606.50;5063955;28;19959;-75
2023/05/27 01:35:41;;;;;;;;;;;;;;;20.70;48.04;98612.31;5071825;28;19937;-75
2023/05/27 01:38:09;;;;;;;;;;;;;;;20.68;48.67;98605.56;5070417;28;19921;-75
2023/05/27 01:40:38;;;;;;;;;;;;;;;20.33;49.70;98608.09;5066787;28;19925;-75
2023/05/27 01:43:06;;;;;;;;;;;;;;;20.46;48.89;98609.13;5065612;28;19978;-75
2023/05/27 01:45:33;;;;;;;;;;;;;;;20.23;50.05;98610.22;5068080;28;19932;-75
2023/05/27 01:47:59;;;;;;;;;;;;;;;19.89;50.18;98605.34;5069835;28;19921;-75
2023/05/27 01:50:26;;;;;;;;;;;;;;;19.57;50.39;98605.53;5070737;28;19925;-75
2023/05/27 01:52:52;;;;;;;;;;;;;;;19.94;50.61;98602.50;5068322;28;19948;-75
2023/05/27 01:55:19;;;;;;;;;;;;;;;20.19;50.61;98604.63;5067047;28;19928;-75
2023/05/27 01:57:47;;;;;;;;;;;;;;;19.89;50.21;98603.44;5064443;28;19948;-75
2023/05/27 02:00:15;;;;;;;;;;;;;;;19.61;50.22;98601.09;5073076;28;19924;-75
2023/05/27 02:02:42;;;;;;;;;;;;;;;18.82;51.19;98603.22;5065366;28;19925;-75
2023/05/27 02:05:08;;;;;;;;;;;;;;;19.13;51.98;98598.81;5073871;28;19919;-75
2023/05/27 02:07:35;;;;;;;;;;;;;;;18.93;51.97;98593.81;5071523;28;19933;-75
2023/05/27 02:10:01;;;;;;;;;;;;;;;18.53;52.64;98597.28;5075365;28;19921;-75
2023/05/27 02:12:27;;;;;;;;;;;;;;;18.38;53.22;98595.63;5076580;28;19924;-75
2023/05/27 02:14:55;;;;;;;;;;;;;;;18.89;53.50;98592.81;5071659;28;19921;-76
2023/05/27 02:17:24;;;;;;;;;;;;;;;19.03;53.50;98588.22;5066454;28;19932;-76
2023/05/27 02:19:50;;;;;;;;;;;;;;;19.05;52.54;98588.72;5065585;28;19939;-76
2023/05/27 02:22:17;;;;;;;;;;;;;;;19.06;52.79;98589.50;5067888;28;19925;-75
2023/05/27 02:24:43;;;;;;;;;;;;;;;19.14;52.83;98581.47;5070137;28;19952;-76
2023/05/27 02:27:10;;;;;;;;;;;;;;;18.91;52.67;98590.59;5069712;28;19925;-75
2023/05/27 02:29:36;;;;;;;;;;;;;;;18.49;52.89;98594.38;5066472;28;19920;-75
2023/05/27 02:32:04;;;;;;;;;;;;;;;18.90;53.17;98589.00;5066306;28;19932;-75
2023/05/27 02:34:31;;;;;;;;;;;;;;;19.68;51.74;98582.53;5065965;28;19932;-75
2023/05/27 02:36:58;;;;;;;;;;;;;;;19.55;51.84;98584.16;5059758;28;19925;-75
2023/05/27 02:39:24;;;;;;;;;;;;;;;19.57;51.90;98584.66;5071091;28;19937;-75
2023/05/27 02:41:51;;;;;;;;;;;;;;;19.09;52.00;98586.22;5061326;28;20016;-75
2023/05/27 02:44:17;;;;;;;;;;;;;;;19.03;52.49;98587.41;5077307;28;19944;-75
2023/05/27 02:46:43;;;;;;;;;;;;;;;18.79;52.96;98580.28;5065781;28;19935;-75
2023/05/27 02:49:11;;;;;;;;;;;;;;;18.81;52.75;98585.41;5066987;28;19940;-75
2023/05/27 02:51:37;;;;;;;;;;;;;;;18.94;52.98;98581.09;5070421;28;19944;-75
2023/05/27 02:54:04;;;;;;;;;;;;;;;18.71;53.11;98591.00;5067100;28;20647;-75
2023/05/27 02:56:30;;;;;;;;;;;;;;;18.72;53.24;98579.09;5065736;28;19955;-75
2023/05/27 02:58:57;;;;;;;;;;;;;;;19.06;52.93;98582.19;5073073;28;19925;-75
2023/05/27 03:01:23;;;;;;;;;;;;;;;18.92;52.00;98580.56;5073854;28;20318;-75
2023/05/27 03:03:50;;;;;;;;;;;;;;;18.20;53.35;98582.94;5066529;28;20277;-75
2023/05/27 03:06:17;;;;;;;;;;;;;;;17.98;54.19;98582.78;5064549;28;19924;-76
2023/05/27 03:08:44;;;;;;;;;;;;;;;18.71;53.76;98575.56;5065480;28;19932;-75
2023/05/27 03:11:10;;;;;;;;;;;;;;;18.92;53.27;98578.69;5068048;28;19929;-75
2023/05/27 03:13:37;;;;;;;;;;;;;;;18.71;52.97;98574.75;5069131;28;19920;-75
2023/05/27 03:16:04;;;;;;;;;;;;;;;19.15;52.85;98574.97;5068192;28;19947;-75
2023/05/27 03:18:30;;;;;;;;;;;;;;;19.23;51.98;98576.97;5062848;28;19928;-74
2023/05/27 03:20:56;;;;;;;;;;;;;;;19.56;51.85;98579.56;5058574;28;19948;-74
2023/05/27 03:23:24;;;;;;;;;;;;;;;19.71;51.84;98576.50;5066143;28;19936;-74
2023/05/27 03:25:51;;;;;;;;;;;;;;;19.63;51.53;98582.63;5067881;28;19929;-74
2023/05/27 03:28:17;;;;;;;;;;;;;;;19.81;50.99;98581.66;5069149;28;19925;-74
2023/05/27 03:30:44;;;;;;;;;;;;;;;19.35;51.27;98588.06;5070593;28;19975;-75
2023/05/27 03:33:10;;;;;;;;;;;;;;;19.06;52.09;98584.91;5064058;28;19932;-75
2023/05/27 03:35:36;;;;;;;;;;;;;;;18.42;52.35;98585.00;5066063;28;19925;-75
2023/05/27 03:38:05;;;;;;;;;;;;;;;18.30;53.49;98583.56;5056979;28;21455;-75
2023/05/27 03:40:32;;;;;;;;;;;;;;;18.08;54.14;98588.81;5062758;28;19925;-75
2023/05/27 03:42:59;;;;;;;;;;;;;;;17.87;54.41;98582.13;5065788;28;19932;-75
2023/05/27 03:45:25;;;;;;;;;;;;;;;18.08;54.42;98582.59;5065196;28;19948;-75
2023/05/27 03:47:51;;;;;;;;;;;;;;;18.08;54.73;98578.00;5066076;28;19921;-75
2023/05/27 03:50:18;;;;;;;;;;;;;;;18.03;54.24;98580.78;5073246;28;19924;-75
2023/05/27 03:52:44;;;;;;;;;;;;;;;18.13;54.05;98580.63;5065716;28;19932;-75
2023/05/27 03:55:11;;;;;;;;;;;;;;;18.95;53.54;98579.97;5064021;28;19936;-75
2023/05/27 03:57:39;;;;;;;;;;;;;;;19.21;52.41;98581.88;5063781;28;19972;-75
2023/05/27 04:00:07;;;;;;;;;;;;;;;18.73;52.75;98577.97;5074176;28;19925;-75
2023/05/27 04:02:34;;;;;;;;;;;;;;;18.95;53.02;98579.97;5068844;28;19925;-75
2023/05/27 04:05:01;;;;;;;;;;;;;;;19.03;52.24;98587.41;5067260;28;19928;-75
2023/05/27 04:07:28;;;;;;;;;;;;;;;18.68;53.23;98580.78;5064907;28;19936;-75
2023/05/27 04:09:55;;;;;;;;;;;;;;;18.81;53.13;98586.22;5063892;28;19932;-75
2023/05/27 04:12:21;;;;;;;;;;;;;;;18.52;52.93;98587.56;5065867;28;19936;-75
2023/05/27 04:14:49;;;;;;;;;;;;;;;17.87;53.29;98598.31;5069293;28;19925;-75
2023/05/27 04:17:15;;;;;;;;;;;;;;;17.85;53.97;98594.31;5067963;28;19959;-75
2023/05/27 04:19:42;;;;;;;;;;;;;;;17.64;54.42;98596.53;5064826;28;19925;-76
2023/05/27 04:22:08;;;;;;;;;;;;;;;17.77;54.88;98601.19;5063531;28;19924;-75
2023/05/27 04:24:34;;;;;;;;;;;;;;;18.45;54.56;98585.19;5064779;28;19928;-75
2023/05/27 04:27:02;;;;;;;;;;;;;;;18.61;53.44;98589.28;5066347;28;19940;-75
2023/05/27 04:29:31;;;;;;;;;;;;;;;18.70;53.25;98594.78;5070445;28;19947;-75
2023/05/27 04:32:00;;;;;;;;;;;;;;;18.74;53.12;98584.97;5065727;28;19928;-75
2023/05/27 04:34:26;;;;;;;;;;;;;;;18.35;52.97;98597.00;5064730;28;19945;-75
2023/05/27 04:36:53;;;;;;;;;;;;;;;18.66;53.24;98601.94;5064922;28;19932;-75
2023/05/27 04:39:19;;;;;;;;;;;;;;;18.21;53.22;98615.09;5072000;28;19925;-75
2023/05/27 04:41:46;;;;;;;;;;;;;;;17.71;54.02;98607.75;5081352;28;19937;-75
2023/05/27 04:44:12;;;;;;;;;;;;;;;17.73;54.31;98610.97;5064447;28;19928;-75
2023/05/27 04:46:40;;;;;;;;;;;;;;;17.97;54.68;98608.19;5067951;28;19929;-75
2023/05/27 04:49:09;;;;;;;;;;;;;;;17.78;54.44;98597.38;5070844;28;19975;-75
2023/05/27 04:51:37;;;;;;;;;;;;;;;17.01;54.62;98599.47;5073834;28;19932;-75
2023/05/27 04:54:05;;;;;;;;;;;;;;;17.76;55.29;98607.69;5070993;28;19925;-76
2023/05/27 04:56:31;;;;;;;;;;;;;;;17.49;55.37;98600.19;5068303;28;19928;-74
2023/05/27 04:58:58;;;;;;;;;;;;;;;17.33;55.42;98598.78;5066949;28;19929;-74
2023/05/27 05:01:27;;;;;;;;;;;;;;;17.72;54.96;98601.25;5070967;28;19936;-75
2023/05/27 05:04:10;;;;;;;;;;;;;;;17.80;55.13;98608.69;5073164;28;19932;-74
2023/05/27 05:06:38;;;;;;;;;;;;;;;17.85;54.37;98605.94;5074312;28;19921;-75
2023/05/27 05:09:05;;;;;;;;;;;;;;;17.79;53.91;98596.31;5071293;28;19925;-75
2023/05/27 05:11:32;;;;;;;;;;;;;;;17.12;55.11;98600.94;5068707;28;19957;-75
2023/05/27 05:13:58;;;;;;;;;;;;;;;16.72;56.45;98598.69;5068370;28;19925;-74
2023/05/27 05:16:24;;;;;;;;;;;;;;;16.67;57.65;98601.44;5068001;28;19925;-74
2023/05/27 05:18:51;;;;;;;;;;;;;;;16.60;57.34;98596.38;5071826;28;19929;-75
2023/05/27 05:21:17;;;;;;;;;;;;;;;17.87;55.86;98601.03;5071130;28;19921;-75
2023/05/27 05:23:45;;;;;;;;;;;;;;;17.59;55.45;98604.69;5066480;28;19925;-75
2023/05/27 05:26:11;;;;;;;;;;;;;;;17.46;55.56;98605.34;5066762;28;19936;-75
2023/05/27 05:28:37;;;;;;;;;;;;;;;18.58;54.20;98608.00;5067068;28;20001;-75
2023/05/27 05:31:04;;;;;;;;;;;;;;;18.85;53.43;98595.31;5075723;28;19932;-75
2023/05/27 05:33:30;;;;;;;;;;;;;;;18.05;53.97;98611.00;5066593;28;19944;-75
2023/05/27 05:35:57;;;;;;;;;;;;;;;18.50;53.67;98606.81;5066186;28;19925;-75
2023/05/27 05:38:23;;;;;;;;;;;;;;;18.39;53.62;98610.72;5067086;28;19925;-75
2023/05/27 05:40:52;;;;;;;;;;;;;;;18.25;54.13;98610.72;5072018;28;19925;-75
2023/05/27 05:43:18;;;;;;;;;;;;;;;18.78;53.67;98611.13;5070571;28;19963;-75
2023/05/27 05:45:45;;;;;;;;;;;;;;;19.06;52.90;98608.47;5067200;28;19925;-75
2023/05/27 05:48:11;;;;;;;;;;;;;;;18.99;52.60;98611.56;5066889;28;19928;-75
2023/05/27 05:50:38;;;;;;;;;;;;;;;18.51;52.74;98608.38;5065976;28;19925;-75
2023/05/27 05:53:04;;;;;;;;;;;;;;;18.99;53.02;98608.88;5069152;28;19925;-75
2023/05/27 05:55:31;;;;;;;;;;;;;;;19.31;52.42;98610.66;5071215;28;19925;-75
2023/05/27 05:57:59;;;;;;;;;;;;;;;19.31;52.27;98611.44;5068151;28;19932;-75
2023/05/27 06:00:27;;;;;;;;;;;;;;;19.35;51.87;98604.31;5071725;28;19929;-75
2023/05/27 06:02:53;;;;;;;;;;;;;;;19.45;51.91;98605.25;5066870;28;20427;-75
2023/05/27 06:05:20;;;;;;;;;;;;;;;19.67;51.52;98611.53;5066871;28;20245;-75
2023/05/27 06:07:47;;;;;;;;;;;;;;;19.45;51.59;98610.66;5073044;28;19925;-75
2023/05/27 06:10:13;;;;;;;;;;;;;;;19.68;51.81;98610.41;5078448;28;19925;-75
2023/05/27 06:12:39;;;;;;;;;;;;;;;20.14;51.03;98612.09;5065700;28;19931;-75
2023/05/27 06:15:08;;;;;;;;;;;;;;;20.13;50.87;98611.28;5067550;28;19924;-75
2023/05/27 06:17:35;;;;;;;;;;;;;;;20.18;50.78;98624.69;5074391;28;20014;-75
2023/05/27 06:20:01;;;;;;;;;;;;;;;19.84;50.45;98610.88;5069009;28;19960;-75
2023/05/27 06:22:28;;;;;;;;;;;;;;;19.78;50.90;98609.38;5086628;28;19925;-75
2023/05/27 06:24:54;;;;;;;;;;;;;;;19.75;50.93;98613.50;5075339;28;19931;-75
2023/05/27 06:27:20;;;;;;;;;;;;;;;19.50;51.02;98618.66;5066949;28;19932;-71
2023/05/27 06:29:47;;;;;;;;;;;;;;;19.57;51.39;98614.47;5074658;28;19944;-71
2023/05/27 06:32:15;;;;;;;;;;;;;;;19.57;51.59;98617.16;5072103;28;19925;-72
2023/05/27 06:34:41;;;;;;;;;;;;;;;19.99;51.55;98615.97;5065290;28;19925;-71
2023/05/27 06:37:07;;;;;;;;;;;;;;;20.48;50.52;98620.50;5064244;28;19959;-71
2023/05/27 06:39:34;;;;;;;;;;;;;;;20.55;50.49;98622.75;5066602;28;19925;-71
2023/05/27 06:42:01;;;;;;;;;;;;;;;20.77;50.04;98620.00;5066993;28;19921;-72
2023/05/27 06:44:27;;;;;;;;;;;;;;;21.01;49.95;98607.63;5070024;28;19996;-72
2023/05/27 06:46:54;;;;;;;;;;;;;;;20.98;49.95;98615.63;5066561;28;19963;-72
2023/05/27 06:49:22;;;;;;;;;;;;;;;21.09;49.90;98614.25;5065343;28;19925;-72
2023/05/27 06:51:48;;;;;;;;;;;;;;;20.48;50.00;98609.63;5065112;28;19924;-72
2023/05/27 06:54:14;;;;;;;;;;;;;;;20.27;50.70;98617.47;5066208;28;19925;-71
2023/05/27 06:56:41;;;;;;;;;;;;;;;20.36;50.71;98610.19;5070184;28;19963;-71
2023/05/27 06:59:07;;;;;;;;;;;;;;;20.24;50.73;98609.91;5068364;28;19932;-72
2023/05/27 07:01:34;;;;;;;;;;;;;;;20.06;51.03;98616.31;5067749;28;19925;-72
2023/05/27 07:04:00;;;;;;;;;;;;;;;20.05;50.78;98613.94;5065662;28;20363;-72
2023/05/27 07:06:28;;;;;;;;;;;;;;;20.51;51.31;98613.63;5064957;28;20187;-71
2023/05/27 07:08:54;;;;;;;;;;;;;;;20.66;50.91;98607.81;5068813;28;19937;-72
2023/05/27 07:11:21;;;;;;;;;;;;;;;20.36;50.82;98610.19;5070026;28;19947;-71
2023/05/27 07:13:48;;;;;;;;;;;;;;;20.81;51.09;98610.91;5065455;28;19932;-71
2023/05/27 07:16:14;;;;;;;;;;;;;;;20.96;50.46;98602.34;5066785;28;19928;-71
2023/05/27 07:18:40;;;;;;;;;;;;;;;20.79;50.63;98612.34;5070135;28;19957;-72
2023/05/27 07:21:07;;;;;;;;;;;;;;;20.65;50.63;98617.06;5068044;28;19925;-72
2023/05/27 07:23:35;;;;;;;;;;;;;;;20.81;51.07;98616.34;5065095;28;19931;-72
2023/05/27 07:26:01;;;;;;;;;;;;;;;21.74;49.67;98611.53;5064847;28;20016;-72
2023/05/27 07:28:27;;;;;;;;;;;;;;;21.29;48.96;98616.38;5065276;28;19929;-72
2023/05/27 07:30:54;;;;;;;;;;;;;;;20.85;49.85;98613.81;5068342;28;20262;-71
2023/05/27 07:33:20;;;;;;;;;;;;;;;20.80;50.51;98606.59;5069653;28;19924;-72
2023/05/27 07:35:47;;;;;;;;;;;;;;;20.60;51.03;98615.28;5064904;28;19974;-72
2023/05/27 07:38:13;;;;;;;;;;;;;;;20.71;50.75;98611.19;5064887;28;19959;-71
2023/05/27 07:40:41;;;;;;;;;;;;;;;20.35;51.08;98605.88;5065847;28;19925;-72
2023/05/27 07:43:07;;;;;;;;;;;;;;;20.57;51.52;98604.25;5066665;28;19921;-72
2023/05/27 07:45:34;;;;;;;;;;;;;;;21.21;50.33;98598.16;5069373;28;19925;-72
2023/05/27 07:48:00;;;;;;;;;;;;;;;20.82;50.83;98603.59;5067327;28;19925;-72
2023/05/27 07:50:27;;;;;;;;;;;;;;;21.89;50.15;98604.84;5065219;28;19928;-72
2023/05/27 07:52:53;;;;;;;;;;;;;;;21.98;49.82;98606.44;5066497;28;19928;-72
2023/05/27 07:55:20;;;;;;;;;;;;;;;21.48;49.46;98600.63;5064418;28;19925;-72
2023/05/27 07:57:47;;;;;;;;;;;;;;;21.52;49.86;98593.44;5063944;28;19925;-72
2023/05/27 08:00:14;;;;;;;;;;;;;;;21.95;49.94;98598.13;5069093;28;19921;-72
2023/05/27 08:02:41;;;;;;;;;;;;;;;22.44;48.01;98586.72;5063565;28;19928;-71
2023/05/27 08:05:08;;;;;;;;;;;;;;;21.74;47.49;98597.13;5066489;28;19932;-72
2023/05/27 08:07:35;;;;;;;;;;;;;;;21.85;48.55;98588.34;5070546;28;19925;-72
2023/05/27 08:10:01;;;;;;;;;;;;;;;22.01;46.70;98589.50;5067184;28;19947;-72
2023/05/27 08:12:28;;;;;;;;;;;;;;;22.14;47.32;98587.72;5065032;28;19924;-72
2023/05/27 08:14:55;;;;;;;;;;;;;;;21.71;47.15;98595.06;5067916;28;19940;-72
2023/05/27 08:17:22;;;;;;;;;;;;;;;21.24;47.85;98578.50;5070694;28;19933;-72
2023/05/27 08:19:48;;;;;;;;;;;;;;;21.86;48.71;98592.66;5076975;28;20274;-71
2023/05/27 08:22:15;;;;;;;;;;;;;;;21.93;48.42;98570.47;5079888;28;19912;-72
2023/05/27 08:24:41;;;;;;;;;;;;;;;21.92;48.52;98579.72;5074965;28;19929;-72
2023/05/27 08:27:15;;;;;;;;;;;;;;;21.87;48.11;98580.69;5075811;28;19928;-72
2023/05/27 08:29:41;;;;;;;;;;;;;;;22.73;47.91;98571.59;5083304;28;19912;-72
2023/05/27 08:32:09;;;;;;;;;;;;;;;22.40;47.50;98576.81;5076055;28;19925;-72
2023/05/27 08:34:35;;;;;;;;;;;;;;;22.35;47.97;98577.75;5079383;28;19912;-72
2023/05/27 08:37:03;;;;;;;;;;;;;;;21.75;48.42;98579.72;5074434;28;19912;-72
2023/05/27 08:39:29;;;;;;;;;;;;;;;21.75;48.59;98571.56;5068277;28;19925;-72
2023/05/27 08:41:56;;;;;;;;;;;;;;;23.05;48.05;98560.91;5068804;28;19990;-72
2023/05/27 08:44:24;;;;;;;;;;;;;;;23.15;46.98;98567.88;5067787;28;19925;-72
2023/05/27 08:46:51;;;;;;;;;;;;;;;23.22;47.44;98568.16;5071981;28;19971;-72
2023/05/27 08:49:18;;;;;;;;;;;;;;;23.47;46.52;98563.72;5072273;28;19936;-72
2023/05/27 08:51:45;;;;;;;;;;;;;;;23.19;45.82;98565.28;5066459;28;19925;-72
2023/05/27 08:54:12;;;;;;;;;;;;;;;22.69;46.89;98565.19;5068949;28;19925;-72
2023/05/27 08:56:40;;;;;;;;;;;;;;;22.91;47.22;98557.59;5073363;28;19925;-73
2023/05/27 08:59:07;;;;;;;;;;;;;;;22.64;46.32;98562.63;5069716;28;19955;-72
2023/05/27 09:01:33;;;;;;;;;;;;;;;21.89;47.88;98555.91;5075579;28;19936;-72
2023/05/27 09:04:00;;;;;;;;;;;;;;;22.11;48.46;98566.59;5067465;28;19925;-73
2023/05/27 09:06:28;;;;;;;;;;;;;;;23.29;47.14;98548.56;5068758;28;20019;-73
2023/05/27 09:08:55;;;;;;;;;;;;;;;22.41;47.43;98557.41;5062253;28;19927;-73
2023/05/27 09:11:22;;;;;;;;;;;;;;;22.45;47.85;98552.94;5072362;28;19924;-73
2023/05/27 09:13:49;;;;;;;;;;;;;;;22.47;48.37;98547.94;5067565;28;19925;-72
2023/05/27 09:16:15;;;;;;;;;;;;;;;23.55;47.21;98541.06;5067227;28;19935;-72
2023/05/27 09:18:42;;;;;;;;;;;;;;;23.56;46.67;98540.72;5068174;28;19925;-72
2023/05/27 09:21:08;;;;;;;;;;;;;;;23.64;46.35;98539.84;5069185;28;19925;-72
2023/05/27 09:23:39;;;;;;;;;;;;;;;23.16;46.55;98535.97;5070954;28;19924;-72
2023/05/27 09:26:08;;;;;;;;;;;;;;;23.34;46.77;98527.38;5069159;28;19926;-72
2023/05/27 09:28:36;;;;;;;;;;;;;;;22.22;47.60;98537.94;5067248;28;19952;-72
2023/05/27 09:31:04;;;;;;;;;;;;;;;22.08;47.68;98541.97;5070614;28;19925;-72
2023/05/27 09:33:32;;;;;;;;;;;;;;;21.96;47.77;98529.81;5068052;28;19936;-71
2023/05/27 09:35:58;;;;;;;;;;;;;;;22.04;48.46;98522.75;5069189;28;19932;-72
2023/05/27 09:38:25;;;;;;;;;;;;;;;22.01;48.43;98524.22;5070634;28;19928;-72
2023/05/27 09:40:52;;;;;;;;;;;;;;;21.61;49.43;98522.78;5067679;28;19925;-72
2023/05/27 09:43:19;;;;;;;;;;;;;;;21.74;49.31;98529.16;5067182;28;19947;-72
2023/05/27 09:45:46;;;;;;;;;;;;;;;22.39;49.82;98518.84;5071441;28;19925;-72
2023/05/27 09:48:13;;;;;;;;;;;;;;;22.37;48.72;98518.38;5071098;28;19947;-72
2023/05/27 09:50:40;;;;;;;;;;;;;;;22.39;49.15;98516.13;5067112;28;19921;-72
2023/05/27 09:53:07;;;;;;;;;;;;;;;22.60;49.15;98505.31;5066785;28;19925;-72
2023/05/27 09:55:34;;;;;;;;;;;;;;;23.18;47.95;98507.25;5066703;28;19929;-72
2023/05/27 09:58:02;;;;;;;;;;;;;;;23.04;48.38;98501.28;5064212;28;19948;-72
2023/05/27 10:00:29;;;;;;;;;;;;;;;22.70;48.19;98504.19;5071355;28;19925;-72
2023/05/27 10:02:57;;;;;;;;;;;;;;;22.06;49.20;98504.22;5068197;28;19924;-72
2023/05/27 10:05:23;;;;;;;;;;;;;;;22.06;49.58;98505.00;5066446;28;19936;-71
2023/05/27 10:07:50;;;;;;;;;;;;;;;22.03;50.25;98515.75;5066658;28;19925;-72
2023/05/27 10:10:18;;;;;;;;;;;;;;;22.91;48.96;98497.66;5055882;28;20613;-72
2023/05/27 10:12:45;;;;;;;;;;;;;;;22.87;48.04;98491.28;5068306;28;19932;-72
2023/05/27 10:15:23;;;;;;;;;;;;;;;23.10;48.38;98498.03;5068696;28;20605;-72
2023/05/27 10:17:50;;;;;;;;;;;;;;;22.76;47.82;98486.53;5062449;28;19924;-72
2023/05/27 10:20:24;;;;;;;;;;;;;;;22.19;48.53;98484.16;5066359;28;19939;-73
2023/05/27 10:22:50;;;;;;;;;;;;;;;21.92;48.55;98479.91;5055802;28;19936;-72
2023/05/27 10:25:17;;;;;;;;;;;;;;;22.03;48.59;98478.44;5065875;28;19925;-72
2023/05/27 10:27:47;;;;;;;;;;;;;;;22.01;49.06;98479.88;5069898;28;19925;-72
2023/05/27 10:30:14;;;;;;;;;;;;;;;22.33;49.05;98465.72;5069822;28;20343;-72
2023/05/27 10:32:58;;;;;;;;;;;;;;;22.58;48.54;98462.09;5064750;28;20291;-72
2023/05/27 10:35:27;;;;;;;;;;;;;;;23.34;47.93;98463.88;5055641;28;20274;-72
2023/05/27 10:37:55;;;;;;;;;;;;;;;22.85;47.51;98465.50;5069731;28;19929;-72
2023/05/27 10:40:25;;;;;;;;;;;;;;;22.58;47.96;98459.38;5071611;28;19925;-72
2023/05/27 10:42:58;;;;;;;;;;;;;;;22.84;48.66;98450.31;5067345;28;19925;-72
2023/05/27 10:45:32;;;;;;;;;;;;;;;23.12;48.06;98457.63;5066658;28;19939;-72
2023/05/27 10:47:58;;;;;;;;;;;;;;;22.46;47.66;98453.84;5065484;28;19924;-72
2023/05/27 10:50:31;;;;;;;;;;;;;;;22.29;47.30;98444.91;5067305;28;19929;-72
2023/05/27 10:53:00;;;;;;;;;;;;;;;23.09;47.63;98450.13;5069624;28;19925;-72
2023/05/27 10:58:07;;;;;;;;;;;;;;;23.39;46.02;98456.34;5068366;28;19925;-72
2023/05/27 11:00:34;;;;;;;;;;;;;;;23.60;45.53;98443.50;5072364;28;20078;-72
2023/05/27 11:03:00;;;;;;;;;;;;;;;23.72;45.45;98447.38;5065410;28;19931;-72
2023/05/27 11:05:29;;;;;;;;;;;;;;;23.57;45.04;98455.06;5066732;28;19925;-72
2023/05/27 11:07:55;;;;;;;;;;;;;;;23.25;44.09;98446.78;5069246;28;19936;-72
2023/05/27 11:10:23;;;;;;;;;;;;;;;23.01;43.92;98453.72;5070488;28;19921;-72
2023/05/27 11:12:49;;;;;;;;;;;;;;;22.90;45.42;98448.97;5064826;28;19924;-72
2023/05/27 11:15:15;;;;;;;;;;;;;;;22.71;44.78;98443.97;5065387;28;20250;-77
2023/05/27 11:17:42;;;;;;;;;;;;;;;22.65;45.43;98442.56;5066595;28;19924;-72
2023/05/27 11:20:09;;;;;;;;;;;;;;;22.55;44.87;98440.16;5066916;28;19925;-72
2023/05/27 11:22:36;;;;;;;;;;;;;;;23.12;45.34;98433.09;5069823;28;19925;-72
2023/05/27 11:25:05;;;;;;;;;;;;;;;23.40;45.23;98432.59;5066032;28;19947;-72
2023/05/27 11:27:37;;;;;;;;;;;;;;;23.57;44.53;98422.34;5064811;28;19929;-72
2023/05/27 11:30:09;;;;;;;;;;;;;;;23.63;43.00;98421.00;5073927;28;19925;-73
2023/05/27 11:32:36;;;;;;;;;;;;;;;23.36;43.88;98432.44;5070958;28;19924;-72
2023/05/27 11:35:05;;;;;;;;;;;;;;;23.42;44.40;98414.78;5067180;28;19935;-72
2023/05/27 11:37:32;;;;;;;;;;;;;;;23.45;44.47;98422.31;5063436;28;19932;-72
2023/05/27 11:39:58;;;;;;;;;;;;;;;23.61;43.83;98406.13;5064510;28;19928;-72
2023/05/27 11:42:25;;;;;;;;;;;;;;;23.52;43.25;98417.09;5065533;28;19932;-72
2023/05/27 11:44:53;;;;;;;;;;;;;;;23.40;43.75;98406.13;5067423;28;19925;-72
2023/05/27 11:47:19;;;;;;;;;;;;;;;23.46;44.36;98401.25;5069257;28;19943;-73
2023/05/27 11:49:46;;;;;;;;;;;;;;;23.32;43.50;98403.47;5063008;28;19948;-72
2023/05/27 11:52:13;;;;;;;;;;;;;;;23.23;45.69;98403.53;5063306;28;19929;-72
2023/05/27 11:54:39;;;;;;;;;;;;;;;23.47;44.36;98394.69;5065735;28;19936;-72
2023/05/27 11:57:10;;;;;;;;;;;;;;;23.27;43.98;98392.78;5066717;28;19952;-72
2023/05/27 11:59:36;;;;;;;;;;;;;;;23.96;49.77;98401.88;5071026;28;19932;-72
2023/05/27 12:02:04;;;;;;;;;;;;;;;25.53;54.22;98395.47;5068124;28;19924;-72
2023/05/27 12:04:31;;;;;;;;;;;;;;;25.78;52.39;98386.00;5064313;28;19924;-72
2023/05/27 12:06:58;;;;;;;;;;;;;;;25.94;51.57;98383.28;5065555;28;19927;-72
2023/05/27 12:09:24;;;;;;;;;;;;;;;26.06;50.11;98383.19;5064225;28;19921;-72
2023/05/27 12:11:50;;;;;;;;;;;;;;;24.90;40.73;98369.03;5067534;28;19971;-73
2023/05/27 12:14:17;;;;;;;;;;;;;;;24.19;41.51;98364.06;5069051;28;19925;-73
2023/05/27 12:16:43;;;;;;;;;;;;;;;23.86;41.52;98380.47;5064809;28;19925;-72
2023/05/27 12:19:11;;;;;;;;;;;;;;;23.86;41.10;98360.59;5067107;28;19925;-72
2023/05/27 12:21:38;;;;;;;;;;;;;;;23.70;42.13;98365.91;5068746;28;19925;-75
2023/05/27 12:24:04;;;;;;;;;;;;;;;24.00;41.96;98374.72;5067012;28;19932;-72
2023/05/27 12:26:31;;;;;;;;;;;;;;;23.98;41.35;98355.97;5065059;28;19936;-72
2023/05/27 12:28:57;;;;;;;;;;;;;;;23.85;42.47;98357.06;5064411;28;19929;-72
2023/05/27 12:31:25;;;;;;;;;;;;;;;23.83;42.47;98353.88;5068460;28;19921;-72
2023/05/27 12:33:51;;;;;;;;;;;;;;;23.78;42.09;98361.47;5075297;28;19932;-72
2023/05/27 12:36:19;;;;;;;;;;;;;;;23.96;41.56;98351.97;5076280;28;19909;-72
2023/05/27 12:38:45;;;;;;;;;;;;;;;24.20;42.99;98356.69;5071712;28;19912;-72
2023/05/27 12:41:12;;;;;;;;;;;;;;;23.97;42.22;98348.09;5071496;28;19921;-71
2023/05/27 12:43:38;;;;;;;;;;;;;;;23.89;41.63;98343.56;5071299;28;19924;-71
2023/05/27 12:46:05;;;;;;;;;;;;;;;23.97;42.65;98342.66;5068824;28;19929;-72
2023/05/27 12:48:31;;;;;;;;;;;;;;;24.31;43.30;98346.91;5069570;28;19927;-71
2023/05/27 12:50:58;;;;;;;;;;;;;;;24.37;43.57;98345.53;5066165;28;20313;-71